sensor_id;sensor_type;location;lat;lon;timestamp;temperature;humidity
37340;DHT22;23223;51.006;7.610;2023-12-20T00:01:42;8.40;99.90
37340;DHT22;23223;51.006;7.610;2023-12-20T00:04:08;8.30;99.90
37340;DHT22;23223;51.006;7.610;2023-12-20T00:06:33;8.10;99.90
37340;DHT22;23223;51.006;7.610;2023-12-20T00:08:59;8.00;99.90
37340;DHT22;23223;51.006;7.610;2023-12-20T00:11:25;7.90;99.90
37340;DHT22;23223;51.006;7.610;2023-12-20T00:13:50;8.00;99.90
37340;DHT22;23223;51.006;7.610;2023-12-20T00:16:18;8.10;99.90
37340;DHT22;23223;51.006;7.610;2023-12-20T00:18:44;8.30;99.90
37340;DHT22;23223;51.006;7.610;2023-12-20T00:21:10;8.30;99.90
37340;DHT22;23223;51.006;7.610;2023-12-20T00:23:35;8.40;99.90
37340;DHT22;23223;51.006;7.610;2023-12-20T00:26:01;8.50;99.90
37340;DHT22;23223;51.006;7.610;2023-12-20T00:28:27;8.50;99.90
37340;DHT22;23223;51.006;7.610;2023-12-20T00:30:52;8.40;99.90
37340;DHT22;23223;51.006;7.610;2023-12-20T00:33:18;8.30;99.90
37340;DHT22;23223;51.006;7.610;2023-12-20T00:35:44;8.20;99.90
37340;DHT22;23223;51.006;7.610;2023-12-20T00:38:10;8.30;99.90
37340;DHT22;23223;51.006;7.610;2023-12-20T00:40:36;8.30;99.90
37340;DHT22;23223;51.006;7.610;2023-12-20T00:43:02;8.20;99.90
37340;DHT22;23223;51.006;7.610;2023-12-20T00:45:28;8.20;99.90
37340;DHT22;23223;51.006;7.610;2023-12-20T00:47:53;8.10;99.90
37340;DHT22;23223;51.006;7.610;2023-12-20T00:50:19;8.10;99.90
37340;DHT22;23223;51.006;7.610;2023-12-20T00:52:47;8.00;99.90
37340;DHT22;23223;51.006;7.610;2023-12-20T00:55:12;8.00;99.90
37340;DHT22;23223;51.006;7.610;2023-12-20T00:57:38;8.00;99.90
37340;DHT22;23223;51.006;7.610;2023-12-20T01:00:04;7.80;99.90
37340;DHT22;23223;51.006;7.610;2023-12-20T01:02:30;7.80;99.90
37340;DHT22;23223;51.006;7.610;2023-12-20T01:04:55;7.90;99.90
37340;DHT22;23223;51.006;7.610;2023-12-20T01:07:21;7.90;99.90
37340;DHT22;23223;51.006;7.610;2023-12-20T01:09:47;7.90;99.90
37340;DHT22;23223;51.006;7.610;2023-12-20T01:12:12;7.90;99.90
37340;DHT22;23223;51.006;7.610;2023-12-20T01:14:38;7.80;99.90
37340;DHT22;23223;51.006;7.610;2023-12-20T01:17:05;7.80;99.90
37340;DHT22;23223;51.006;7.610;2023-12-20T01:19:30;7.80;99.90
37340;DHT22;23223;51.006;7.610;2023-12-20T01:21:56;7.80;99.90
37340;DHT22;23223;51.006;7.610;2023-12-20T01:24:22;7.80;99.90
37340;DHT22;23223;51.006;7.610;2023-12-20T01:26:47;7.80;99.90
37340;DHT22;23223;51.006;7.610;2023-12-20T01:29:13;7.70;99.90
37340;DHT22;23223;51.006;7.610;2023-12-20T01:31:39;7.70;99.90
37340;DHT22;23223;51.006;7.610;2023-12-20T01:34:06;7.60;99.90
37340;DHT22;23223;51.006;7.610;2023-12-20T01:36:31;7.60;99.90
37340;DHT22;23223;51.006;7.610;2023-12-20T01:38:57;7.50;99.90
37340;DHT22;23223;51.006;7.610;2023-12-20T01:41:23;7.40;99.90
37340;DHT22;23223;51.006;7.610;2023-12-20T01:43:49;7.30;99.90
37340;DHT22;23223;51.006;7.610;2023-12-20T01:46:15;7.20;99.90
37340;DHT22;23223;51.006;7.610;2023-12-20T01:48:41;7.20;99.90
37340;DHT22;23223;51.006;7.610;2023-12-20T01:51:07;7.30;99.90
37340;DHT22;23223;51.006;7.610;2023-12-20T01:53:33;7.20;99.90
37340;DHT22;23223;51.006;7.610;2023-12-20T01:55:59;7.30;99.90
37340;DHT22;23223;51.006;7.610;2023-12-20T01:58:25;7.20;99.90
37340;DHT22;23223;51.006;7.610;2023-12-20T02:00:51;7.30;99.90
37340;DHT22;23223;51.006;7.610;2023-12-20T02:03:18;7.30;99.90
37340;DHT22;23223;51.006;7.610;2023-12-20T02:05:44;7.20;99.90
37340;DHT22;23223;51.006;7.610;2023-12-20T02:08:11;7.20;99.90
37340;DHT22;23223;51.006;7.610;2023-12-20T02:10:37;7.10;99.90
37340;DHT22;23223;51.006;7.610;2023-12-20T02:13:03;7.10;99.90
37340;DHT22;23223;51.006;7.610;2023-12-20T02:15:29;7.00;99.90
37340;DHT22;23223;51.006;7.610;2023-12-20T02:17:55;6.90;99.90
37340;DHT22;23223;51.006;7.610;2023-12-20T02:20:21;7.00;99.90
37340;DHT22;23223;51.006;7.610;2023-12-20T02:22:46;7.10;99.90
37340;DHT22;23223;51.006;7.610;2023-12-20T02:25:12;7.20;99.90
37340;DHT22;23223;51.006;7.610;2023-12-20T02:27:38;7.30;99.90
37340;DHT22;23223;51.006;7.610;2023-12-20T02:30:05;7.30;99.90
37340;DHT22;23223;51.006;7.610;2023-12-20T02:32:31;7.30;99.90
37340;DHT22;23223;51.006;7.610;2023-12-20T02:34:57;7.40;99.90
37340;DHT22;23223;51.006;7.610;2023-12-20T02:37:23;7.30;99.90
37340;DHT22;23223;51.006;7.610;2023-12-20T02:39:48;7.30;99.90
37340;DHT22;23223;51.006;7.610;2023-12-20T02:42:14;7.20;99.90
37340;DHT22;23223;51.006;7.610;2023-12-20T02:44:39;7.20;99.90
37340;DHT22;23223;51.006;7.610;2023-12-20T02:47:05;7.30;99.90
37340;DHT22;23223;51.006;7.610;2023-12-20T02:49:31;7.10;99.90
37340;DHT22;23223;51.006;7.610;2023-12-20T02:51:56;7.10;99.90
37340;DHT22;23223;51.006;7.610;2023-12-20T02:54:22;7.20;99.90
37340;DHT22;23223;51.006;7.610;2023-12-20T02:56:48;7.20;99.90
37340;DHT22;23223;51.006;7.610;2023-12-20T02:59:13;7.20;99.90
37340;DHT22;23223;51.006;7.610;2023-12-20T03:01:44;7.20;99.90
37340;DHT22;23223;51.006;7.610;2023-12-20T03:04:10;7.30;99.90
37340;DHT22;23223;51.006;7.610;2023-12-20T03:06:35;7.40;99.90
37340;DHT22;23223;51.006;7.610;2023-12-20T03:09:01;7.50;99.90
37340;DHT22;23223;51.006;7.610;2023-12-20T03:11:27;7.50;99.90
37340;DHT22;23223;51.006;7.610;2023-12-20T03:13:53;7.40;99.90
37340;DHT22;23223;51.006;7.610;2023-12-20T03:16:19;7.40;99.90
37340;DHT22;23223;51.006;7.610;2023-12-20T03:18:44;7.40;99.90
37340;DHT22;23223;51.006;7.610;2023-12-20T03:21:10;7.40;99.90
37340;DHT22;23223;51.006;7.610;2023-12-20T03:23:35;7.40;99.90
37340;DHT22;23223;51.006;7.610;2023-12-20T03:26:01;7.30;99.90
37340;DHT22;23223;51.006;7.610;2023-12-20T03:28:27;7.10;99.90
37340;DHT22;23223;51.006;7.610;2023-12-20T03:30:52;7.10;99.90
37340;DHT22;23223;51.006;7.610;2023-12-20T03:33:18;7.20;99.90
37340;DHT22;23223;51.006;7.610;2023-12-20T03:35:44;7.10;99.90
37340;DHT22;23223;51.006;7.610;2023-12-20T03:38:09;7.10;99.90
37340;DHT22;23223;51.006;7.610;2023-12-20T03:40:35;7.20;99.90
37340;DHT22;23223;51.006;7.610;2023-12-20T03:43:01;7.00;99.90
37340;DHT22;23223;51.006;7.610;2023-12-20T03:45:26;6.90;99.90
37340;DHT22;23223;51.006;7.610;2023-12-20T03:47:52;6.90;99.90
37340;DHT22;23223;51.006;7.610;2023-12-20T03:50:25;7.10;99.90
37340;DHT22;23223;51.006;7.610;2023-12-20T03:52:51;7.20;99.90
37340;DHT22;23223;51.006;7.610;2023-12-20T03:55:17;7.10;99.90
37340;DHT22;23223;51.006;7.610;2023-12-20T03:57:42;7.10;99.90
37340;DHT22;23223;51.006;7.610;2023-12-20T04:00:08;7.00;99.90
37340;DHT22;23223;51.006;7.610;2023-12-20T04:02:41;6.80;99.90
37340;DHT22;23223;51.006;7.610;2023-12-20T04:05:07;6.90;99.90
37340;DHT22;23223;51.006;7.610;2023-12-20T04:07:33;6.60;99.90
37340;DHT22;23223;51.006;7.610;2023-12-20T04:09:59;6.60;99.90
37340;DHT22;23223;51.006;7.610;2023-12-20T04:12:25;6.70;99.90
37340;DHT22;23223;51.006;7.610;2023-12-20T04:14:51;6.80;99.90
37340;DHT22;23223;51.006;7.610;2023-12-20T04:17:18;6.90;99.90
37340;DHT22;23223;51.006;7.610;2023-12-20T04:19:43;7.00;99.90
37340;DHT22;23223;51.006;7.610;2023-12-20T04:22:09;6.90;99.90
37340;DHT22;23223;51.006;7.610;2023-12-20T04:24:34;6.80;99.90
37340;DHT22;23223;51.006;7.610;2023-12-20T04:27:01;6.80;99.90
37340;DHT22;23223;51.006;7.610;2023-12-20T04:29:27;6.80;99.90
37340;DHT22;23223;51.006;7.610;2023-12-20T04:31:52;6.90;99.90
37340;DHT22;23223;51.006;7.610;2023-12-20T04:34:18;6.90;99.90
37340;DHT22;23223;51.006;7.610;2023-12-20T04:36:44;7.00;99.90
37340;DHT22;23223;51.006;7.610;2023-12-20T04:39:11;7.00;99.90
37340;DHT22;23223;51.006;7.610;2023-12-20T04:41:37;7.00;99.90
37340;DHT22;23223;51.006;7.610;2023-12-20T04:44:02;7.00;99.90
37340;DHT22;23223;51.006;7.610;2023-12-20T04:46:28;7.00;99.90
37340;DHT22;23223;51.006;7.610;2023-12-20T04:48:53;7.00;99.90
37340;DHT22;23223;51.006;7.610;2023-12-20T04:51:19;7.00;99.90
37340;DHT22;23223;51.006;7.610;2023-12-20T04:53:45;7.00;99.90
37340;DHT22;23223;51.006;7.610;2023-12-20T04:56:11;7.00;99.90
37340;DHT22;23223;51.006;7.610;2023-12-20T04:58:37;7.00;99.90
37340;DHT22;23223;51.006;7.610;2023-12-20T05:01:03;7.00;99.90
37340;DHT22;23223;51.006;7.610;2023-12-20T05:03:30;6.90;99.90
37340;DHT22;23223;51.006;7.610;2023-12-20T05:05:56;6.90;99.90
37340;DHT22;23223;51.006;7.610;2023-12-20T05:08:22;6.90;99.90
37340;DHT22;23223;51.006;7.610;2023-12-20T05:10:48;7.00;99.90
37340;DHT22;23223;51.006;7.610;2023-12-20T05:13:13;6.90;99.90
37340;DHT22;23223;51.006;7.610;2023-12-20T05:15:39;6.80;99.90
37340;DHT22;23223;51.006;7.610;2023-12-20T05:18:05;6.70;99.90
37340;DHT22;23223;51.006;7.610;2023-12-20T05:20:30;6.70;99.90
37340;DHT22;23223;51.006;7.610;2023-12-20T05:22:56;6.80;99.90
37340;DHT22;23223;51.006;7.610;2023-12-20T05:25:21;6.70;99.90
37340;DHT22;23223;51.006;7.610;2023-12-20T05:27:48;6.60;99.90
37340;DHT22;23223;51.006;7.610;2023-12-20T05:30:13;6.50;99.90
37340;DHT22;23223;51.006;7.610;2023-12-20T05:32:39;6.60;99.90
37340;DHT22;23223;51.006;7.610;2023-12-20T05:35:05;6.70;99.90
37340;DHT22;23223;51.006;7.610;2023-12-20T05:37:30;6.70;99.90
37340;DHT22;23223;51.006;7.610;2023-12-20T05:39:56;6.70;99.90
37340;DHT22;23223;51.006;7.610;2023-12-20T05:42:21;6.80;99.90
37340;DHT22;23223;51.006;7.610;2023-12-20T05:44:47;6.80;99.90
37340;DHT22;23223;51.006;7.610;2023-12-20T05:47:12;6.80;99.90
37340;DHT22;23223;51.006;7.610;2023-12-20T05:49:38;6.60;99.90
37340;DHT22;23223;51.006;7.610;2023-12-20T05:52:04;6.50;99.90
37340;DHT22;23223;51.006;7.610;2023-12-20T05:54:29;6.50;99.90
37340;DHT22;23223;51.006;7.610;2023-12-20T05:56:55;6.50;99.90
37340;DHT22;23223;51.006;7.610;2023-12-20T05:59:21;6.60;99.90
37340;DHT22;23223;51.006;7.610;2023-12-20T06:01:46;6.50;99.90
37340;DHT22;23223;51.006;7.610;2023-12-20T06:04:12;6.50;99.90
37340;DHT22;23223;51.006;7.610;2023-12-20T06:06:41;6.50;99.90
37340;DHT22;23223;51.006;7.610;2023-12-20T06:09:07;6.40;99.90
37340;DHT22;23223;51.006;7.610;2023-12-20T06:11:33;6.40;99.90
37340;DHT22;23223;51.006;7.610;2023-12-20T06:13:58;6.50;99.90
37340;DHT22;23223;51.006;7.610;2023-12-20T06:16:24;6.50;99.90
37340;DHT22;23223;51.006;7.610;2023-12-20T06:18:50;6.50;99.90
37340;DHT22;23223;51.006;7.610;2023-12-20T06:21:15;6.40;99.90
37340;DHT22;23223;51.006;7.610;2023-12-20T06:23:41;6.30;99.90
37340;DHT22;23223;51.006;7.610;2023-12-20T06:26:06;6.30;99.90
37340;DHT22;23223;51.006;7.610;2023-12-20T06:28:32;6.50;99.90
37340;DHT22;23223;51.006;7.610;2023-12-20T06:30:58;6.40;99.90
37340;DHT22;23223;51.006;7.610;2023-12-20T06:33:24;6.40;99.90
37340;DHT22;23223;51.006;7.610;2023-12-20T06:35:50;6.30;99.90
37340;DHT22;23223;51.006;7.610;2023-12-20T06:38:17;6.30;99.90
37340;DHT22;23223;51.006;7.610;2023-12-20T06:40:43;6.20;99.90
37340;DHT22;23223;51.006;7.610;2023-12-20T06:43:09;6.20;99.90
37340;DHT22;23223;51.006;7.610;2023-12-20T06:45:34;6.10;99.90
37340;DHT22;23223;51.006;7.610;2023-12-20T06:48:00;6.00;99.90
37340;DHT22;23223;51.006;7.610;2023-12-20T06:50:25;6.00;99.90
37340;DHT22;23223;51.006;7.610;2023-12-20T06:52:51;5.90;99.90
37340;DHT22;23223;51.006;7.610;2023-12-20T06:55:17;5.90;99.90
37340;DHT22;23223;51.006;7.610;2023-12-20T06:57:43;6.00;99.90
37340;DHT22;23223;51.006;7.610;2023-12-20T07:00:11;6.00;99.90
37340;DHT22;23223;51.006;7.610;2023-12-20T07:02:36;5.90;99.90
37340;DHT22;23223;51.006;7.610;2023-12-20T07:05:02;5.80;99.90
37340;DHT22;23223;51.006;7.610;2023-12-20T07:07:28;5.80;99.90
37340;DHT22;23223;51.006;7.610;2023-12-20T07:09:53;5.90;99.90
37340;DHT22;23223;51.006;7.610;2023-12-20T07:12:19;5.80;99.90
37340;DHT22;23223;51.006;7.610;2023-12-20T07:14:45;5.90;99.90
37340;DHT22;23223;51.006;7.610;2023-12-20T07:17:11;5.90;99.90
37340;DHT22;23223;51.006;7.610;2023-12-20T07:19:39;5.90;99.90
37340;DHT22;23223;51.006;7.610;2023-12-20T07:22:06;5.80;99.90
37340;DHT22;23223;51.006;7.610;2023-12-20T07:24:32;5.70;99.90
37340;DHT22;23223;51.006;7.610;2023-12-20T07:26:58;5.70;99.90
37340;DHT22;23223;51.006;7.610;2023-12-20T07:29:24;5.70;99.90
37340;DHT22;23223;51.006;7.610;2023-12-20T07:31:50;5.70;99.90
37340;DHT22;23223;51.006;7.610;2023-12-20T07:34:17;5.80;99.90
37340;DHT22;23223;51.006;7.610;2023-12-20T07:36:43;5.70;99.90
37340;DHT22;23223;51.006;7.610;2023-12-20T07:39:08;5.70;99.90
37340;DHT22;23223;51.006;7.610;2023-12-20T07:41:34;5.70;99.90
37340;DHT22;23223;51.006;7.610;2023-12-20T07:43:59;5.90;99.90
37340;DHT22;23223;51.006;7.610;2023-12-20T07:46:25;6.00;99.90
37340;DHT22;23223;51.006;7.610;2023-12-20T07:48:51;6.00;99.90
37340;DHT22;23223;51.006;7.610;2023-12-20T07:51:16;6.00;99.90
37340;DHT22;23223;51.006;7.610;2023-12-20T07:53:42;6.00;99.90
37340;DHT22;23223;51.006;7.610;2023-12-20T07:56:14;6.00;99.90
37340;DHT22;23223;51.006;7.610;2023-12-20T07:58:40;5.90;99.90
37340;DHT22;23223;51.006;7.610;2023-12-20T08:01:06;5.80;99.90
37340;DHT22;23223;51.006;7.610;2023-12-20T08:03:32;5.90;99.90
37340;DHT22;23223;51.006;7.610;2023-12-20T08:05:57;5.90;99.90
37340;DHT22;23223;51.006;7.610;2023-12-20T08:08:25;6.00;99.90
37340;DHT22;23223;51.006;7.610;2023-12-20T08:10:50;6.00;99.90
37340;DHT22;23223;51.006;7.610;2023-12-20T08:13:16;5.90;99.90
37340;DHT22;23223;51.006;7.610;2023-12-20T08:15:42;5.80;99.90
37340;DHT22;23223;51.006;7.610;2023-12-20T08:18:07;5.80;99.90
37340;DHT22;23223;51.006;7.610;2023-12-20T08:20:33;5.80;99.90
37340;DHT22;23223;51.006;7.610;2023-12-20T08:22:58;5.90;99.90
37340;DHT22;23223;51.006;7.610;2023-12-20T08:25:24;5.80;99.90
37340;DHT22;23223;51.006;7.610;2023-12-20T08:27:50;5.80;99.90
37340;DHT22;23223;51.006;7.610;2023-12-20T08:30:15;5.90;99.90
37340;DHT22;23223;51.006;7.610;2023-12-20T08:32:46;5.80;99.90
37340;DHT22;23223;51.006;7.610;2023-12-20T08:35:11;5.80;99.90
37340;DHT22;23223;51.006;7.610;2023-12-20T08:37:37;5.80;99.90
37340;DHT22;23223;51.006;7.610;2023-12-20T08:40:02;5.80;99.90
37340;DHT22;23223;51.006;7.610;2023-12-20T08:42:28;5.80;99.90
37340;DHT22;23223;51.006;7.610;2023-12-20T08:44:59;5.90;99.90
37340;DHT22;23223;51.006;7.610;2023-12-20T08:47:25;5.80;99.90
37340;DHT22;23223;51.006;7.610;2023-12-20T08:49:51;5.70;99.90
37340;DHT22;23223;51.006;7.610;2023-12-20T08:52:24;5.70;99.90
37340;DHT22;23223;51.006;7.610;2023-12-20T08:54:50;5.60;99.90
37340;DHT22;23223;51.006;7.610;2023-12-20T08:57:20;5.70;99.90
37340;DHT22;23223;51.006;7.610;2023-12-20T08:59:47;5.80;99.90
37340;DHT22;23223;51.006;7.610;2023-12-20T09:02:14;5.80;99.90
37340;DHT22;23223;51.006;7.610;2023-12-20T09:04:39;5.80;99.90
37340;DHT22;23223;51.006;7.610;2023-12-20T09:07:05;5.90;99.90
37340;DHT22;23223;51.006;7.610;2023-12-20T09:09:31;5.90;99.90
37340;DHT22;23223;51.006;7.610;2023-12-20T09:11:57;5.90;99.90
37340;DHT22;23223;51.006;7.610;2023-12-20T09:14:23;5.80;99.90
37340;DHT22;23223;51.006;7.610;2023-12-20T09:16:49;5.80;99.90
37340;DHT22;23223;51.006;7.610;2023-12-20T09:19:17;5.80;99.90
37340;DHT22;23223;51.006;7.610;2023-12-20T09:21:42;5.80;99.90
37340;DHT22;23223;51.006;7.610;2023-12-20T09:24:08;5.80;99.90
37340;DHT22;23223;51.006;7.610;2023-12-20T09:26:34;5.80;99.90
37340;DHT22;23223;51.006;7.610;2023-12-20T09:29:00;5.80;99.90
37340;DHT22;23223;51.006;7.610;2023-12-20T09:31:25;5.80;99.90
37340;DHT22;23223;51.006;7.610;2023-12-20T09:33:51;5.70;99.90
37340;DHT22;23223;51.006;7.610;2023-12-20T09:36:17;5.70;99.90
37340;DHT22;23223;51.006;7.610;2023-12-20T09:38:42;5.70;99.90
37340;DHT22;23223;51.006;7.610;2023-12-20T09:41:08;5.70;99.90
37340;DHT22;23223;51.006;7.610;2023-12-20T09:43:37;5.80;99.90
37340;DHT22;23223;51.006;7.610;2023-12-20T09:46:06;5.80;99.90
37340;DHT22;23223;51.006;7.610;2023-12-20T09:48:33;5.80;99.90
37340;DHT22;23223;51.006;7.610;2023-12-20T09:50:59;5.90;99.90
37340;DHT22;23223;51.006;7.610;2023-12-20T09:53:25;5.80;99.90
37340;DHT22;23223;51.006;7.610;2023-12-20T09:55:58;5.70;99.90
37340;DHT22;23223;51.006;7.610;2023-12-20T09:58:25;5.80;99.90
37340;DHT22;23223;51.006;7.610;2023-12-20T10:00:53;5.80;99.90
37340;DHT22;23223;51.006;7.610;2023-12-20T10:03:24;5.80;99.90
37340;DHT22;23223;51.006;7.610;2023-12-20T10:05:54;5.80;99.90
37340;DHT22;23223;51.006;7.610;2023-12-20T10:08:21;5.70;99.90
37340;DHT22;23223;51.006;7.610;2023-12-20T10:10:48;5.80;99.90
37340;DHT22;23223;51.006;7.610;2023-12-20T10:13:14;5.80;99.90
37340;DHT22;23223;51.006;7.610;2023-12-20T10:15:40;5.80;99.90
37340;DHT22;23223;51.006;7.610;2023-12-20T10:18:06;5.80;99.90
37340;DHT22;23223;51.006;7.610;2023-12-20T10:20:32;5.70;99.90
37340;DHT22;23223;51.006;7.610;2023-12-20T10:22:59;5.70;99.90
37340;DHT22;23223;51.006;7.610;2023-12-20T10:25:25;5.80;99.90
37340;DHT22;23223;51.006;7.610;2023-12-20T10:28:12;5.80;99.90
37340;DHT22;23223;51.006;7.610;2023-12-20T10:30:38;5.60;99.90
37340;DHT22;23223;51.006;7.610;2023-12-20T10:33:06;5.70;99.90
37340;DHT22;23223;51.006;7.610;2023-12-20T10:35:33;5.70;99.90
37340;DHT22;23223;51.006;7.610;2023-12-20T10:38:03;5.70;99.90
37340;DHT22;23223;51.006;7.610;2023-12-20T10:40:31;5.80;99.90
37340;DHT22;23223;51.006;7.610;2023-12-20T10:42:58;5.80;99.90
37340;DHT22;23223;51.006;7.610;2023-12-20T10:45:24;5.70;99.90
37340;DHT22;23223;51.006;7.610;2023-12-20T10:47:51;5.70;99.90
37340;DHT22;23223;51.006;7.610;2023-12-20T10:50:18;5.70;99.90
37340;DHT22;23223;51.006;7.610;2023-12-20T10:52:44;5.60;99.90
37340;DHT22;23223;51.006;7.610;2023-12-20T10:55:11;5.60;99.90
37340;DHT22;23223;51.006;7.610;2023-12-20T10:57:36;5.60;99.90
37340;DHT22;23223;51.006;7.610;2023-12-20T11:00:03;5.50;99.90
37340;DHT22;23223;51.006;7.610;2023-12-20T11:02:32;5.50;99.90
37340;DHT22;23223;51.006;7.610;2023-12-20T11:07:32;5.50;99.90
37340;DHT22;23223;51.006;7.610;2023-12-20T11:10:17;5.50;99.90
37340;DHT22;23223;51.006;7.610;2023-12-20T11:12:48;5.50;99.90
37340;DHT22;23223;51.006;7.610;2023-12-20T11:15:16;5.50;99.90
37340;DHT22;23223;51.006;7.610;2023-12-20T11:17:45;5.50;99.90
37340;DHT22;23223;51.006;7.610;2023-12-20T11:20:11;5.60;99.90
37340;DHT22;23223;51.006;7.610;2023-12-20T11:22:37;5.60;99.90
37340;DHT22;23223;51.006;7.610;2023-12-20T11:25:11;5.60;99.90
37340;DHT22;23223;51.006;7.610;2023-12-20T11:27:40;5.60;99.90
37340;DHT22;23223;51.006;7.610;2023-12-20T11:30:06;5.60;99.90
37340;DHT22;23223;51.006;7.610;2023-12-20T11:32:35;5.60;99.90
37340;DHT22;23223;51.006;7.610;2023-12-20T11:37:38;5.60;99.90
37340;DHT22;23223;51.006;7.610;2023-12-20T11:40:07;5.70;99.90
37340;DHT22;23223;51.006;7.610;2023-12-20T11:42:41;5.70;99.90
37340;DHT22;23223;51.006;7.610;2023-12-20T11:45:11;5.80;99.90
37340;DHT22;23223;51.006;7.610;2023-12-20T11:47:42;5.90;99.90
37340;DHT22;23223;51.006;7.610;2023-12-20T11:50:07;5.80;99.90
37340;DHT22;23223;51.006;7.610;2023-12-20T11:52:33;5.80;99.90
37340;DHT22;23223;51.006;7.610;2023-12-20T11:54:58;5.80;99.90
37340;DHT22;23223;51.006;7.610;2023-12-20T11:57:25;5.90;99.90
37340;DHT22;23223;51.006;7.610;2023-12-20T11:59:51;5.90;99.90
37340;DHT22;23223;51.006;7.610;2023-12-20T12:02:16;5.90;99.90
37340;DHT22;23223;51.006;7.610;2023-12-20T12:04:42;5.80;99.90
37340;DHT22;23223;51.006;7.610;2023-12-20T12:07:07;5.80;99.90
37340;DHT22;23223;51.006;7.610;2023-12-20T12:09:33;5.90;99.90
37340;DHT22;23223;51.006;7.610;2023-12-20T12:11:59;5.80;99.90
37340;DHT22;23223;51.006;7.610;2023-12-20T12:14:25;5.70;99.90
37340;DHT22;23223;51.006;7.610;2023-12-20T12:16:51;5.70;99.90
37340;DHT22;23223;51.006;7.610;2023-12-20T12:19:22;5.70;99.90
37340;DHT22;23223;51.006;7.610;2023-12-20T12:21:49;5.80;99.90
37340;DHT22;23223;51.006;7.610;2023-12-20T12:24:15;5.80;99.90
37340;DHT22;23223;51.006;7.610;2023-12-20T12:26:40;5.80;99.90
37340;DHT22;23223;51.006;7.610;2023-12-20T12:29:09;5.80;99.90
37340;DHT22;23223;51.006;7.610;2023-12-20T12:31:35;5.80;99.90
37340;DHT22;23223;51.006;7.610;2023-12-20T12:34:01;5.80;99.90
37340;DHT22;23223;51.006;7.610;2023-12-20T12:36:29;5.70;99.90
37340;DHT22;23223;51.006;7.610;2023-12-20T12:38:57;5.70;99.90
37340;DHT22;23223;51.006;7.610;2023-12-20T12:41:23;5.70;99.90
37340;DHT22;23223;51.006;7.610;2023-12-20T12:43:48;5.70;99.90
37340;DHT22;23223;51.006;7.610;2023-12-20T12:46:14;5.70;99.90
37340;DHT22;23223;51.006;7.610;2023-12-20T12:48:40;5.70;99.90
37340;DHT22;23223;51.006;7.610;2023-12-20T12:51:05;5.70;99.90
37340;DHT22;23223;51.006;7.610;2023-12-20T12:53:32;5.70;99.90
37340;DHT22;23223;51.006;7.610;2023-12-20T12:55:58;5.80;99.90
37340;DHT22;23223;51.006;7.610;2023-12-20T12:58:23;5.70;99.90
37340;DHT22;23223;51.006;7.610;2023-12-20T13:00:50;5.70;99.90
37340;DHT22;23223;51.006;7.610;2023-12-20T13:03:16;5.70;99.90
37340;DHT22;23223;51.006;7.610;2023-12-20T13:05:42;5.80;99.90
37340;DHT22;23223;51.006;7.610;2023-12-20T13:08:08;5.70;99.90
37340;DHT22;23223;51.006;7.610;2023-12-20T13:10:34;5.80;99.90
37340;DHT22;23223;51.006;7.610;2023-12-20T13:13:00;5.90;99.90
37340;DHT22;23223;51.006;7.610;2023-12-20T13:15:26;5.90;99.90
37340;DHT22;23223;51.006;7.610;2023-12-20T13:17:51;5.90;99.90
37340;DHT22;23223;51.006;7.610;2023-12-20T13:20:17;5.90;99.90
37340;DHT22;23223;51.006;7.610;2023-12-20T13:22:42;5.90;99.90
37340;DHT22;23223;51.006;7.610;2023-12-20T13:25:08;5.90;99.90
37340;DHT22;23223;51.006;7.610;2023-12-20T13:27:34;5.90;99.90
37340;DHT22;23223;51.006;7.610;2023-12-20T13:30:00;5.90;99.90
37340;DHT22;23223;51.006;7.610;2023-12-20T13:32:25;5.90;99.90
37340;DHT22;23223;51.006;7.610;2023-12-20T13:34:51;5.90;99.90
37340;DHT22;23223;51.006;7.610;2023-12-20T13:37:16;5.90;99.90
37340;DHT22;23223;51.006;7.610;2023-12-20T13:39:42;5.80;99.90
37340;DHT22;23223;51.006;7.610;2023-12-20T13:42:08;5.80;99.90
37340;DHT22;23223;51.006;7.610;2023-12-20T13:44:33;5.90;99.90
37340;DHT22;23223;51.006;7.610;2023-12-20T13:46:59;5.80;99.90
37340;DHT22;23223;51.006;7.610;2023-12-20T13:49:25;5.80;99.90
37340;DHT22;23223;51.006;7.610;2023-12-20T13:51:51;5.80;99.90
37340;DHT22;23223;51.006;7.610;2023-12-20T13:54:16;5.90;99.90
37340;DHT22;23223;51.006;7.610;2023-12-20T13:56:45;6.00;99.90
37340;DHT22;23223;51.006;7.610;2023-12-20T13:59:11;5.90;99.90
37340;DHT22;23223;51.006;7.610;2023-12-20T14:01:38;5.90;99.90
37340;DHT22;23223;51.006;7.610;2023-12-20T14:04:03;5.90;99.90
37340;DHT22;23223;51.006;7.610;2023-12-20T14:06:29;5.90;99.90
37340;DHT22;23223;51.006;7.610;2023-12-20T14:08:55;5.90;99.90
37340;DHT22;23223;51.006;7.610;2023-12-20T14:11:21;5.90;99.90
37340;DHT22;23223;51.006;7.610;2023-12-20T14:13:46;5.80;99.90
37340;DHT22;23223;51.006;7.610;2023-12-20T14:16:12;5.80;99.90
37340;DHT22;23223;51.006;7.610;2023-12-20T14:18:38;5.80;99.90
37340;DHT22;23223;51.006;7.610;2023-12-20T14:21:05;5.80;99.90
37340;DHT22;23223;51.006;7.610;2023-12-20T14:23:31;5.90;99.90
37340;DHT22;23223;51.006;7.610;2023-12-20T14:25:59;5.80;99.90
37340;DHT22;23223;51.006;7.610;2023-12-20T14:28:25;5.80;99.90
37340;DHT22;23223;51.006;7.610;2023-12-20T14:30:51;5.70;99.90
37340;DHT22;23223;51.006;7.610;2023-12-20T14:33:16;5.80;99.90
37340;DHT22;23223;51.006;7.610;2023-12-20T14:35:42;5.80;99.90
37340;DHT22;23223;51.006;7.610;2023-12-20T14:38:09;5.80;99.90
37340;DHT22;23223;51.006;7.610;2023-12-20T14:40:35;5.80;99.90
37340;DHT22;23223;51.006;7.610;2023-12-20T14:43:00;5.80;99.90
37340;DHT22;23223;51.006;7.610;2023-12-20T14:45:29;5.80;99.90
37340;DHT22;23223;51.006;7.610;2023-12-20T14:47:55;5.70;99.90
37340;DHT22;23223;51.006;7.610;2023-12-20T14:50:21;5.70;99.90
37340;DHT22;23223;51.006;7.610;2023-12-20T14:52:47;5.80;99.90
37340;DHT22;23223;51.006;7.610;2023-12-20T14:55:13;5.80;99.90
37340;DHT22;23223;51.006;7.610;2023-12-20T14:57:39;5.80;99.90
37340;DHT22;23223;51.006;7.610;2023-12-20T15:00:05;5.80;99.90
37340;DHT22;23223;51.006;7.610;2023-12-20T15:02:31;5.80;99.90
37340;DHT22;23223;51.006;7.610;2023-12-20T15:04:57;5.90;99.90
37340;DHT22;23223;51.006;7.610;2023-12-20T15:07:22;5.80;99.90
37340;DHT22;23223;51.006;7.610;2023-12-20T15:09:48;5.90;99.90
37340;DHT22;23223;51.006;7.610;2023-12-20T15:12:15;5.90;99.90
37340;DHT22;23223;51.006;7.610;2023-12-20T15:14:40;6.00;99.90
37340;DHT22;23223;51.006;7.610;2023-12-20T15:17:06;5.90;99.90
37340;DHT22;23223;51.006;7.610;2023-12-20T15:19:34;6.00;99.90
37340;DHT22;23223;51.006;7.610;2023-12-20T15:22:00;6.00;99.90
37340;DHT22;23223;51.006;7.610;2023-12-20T15:24:25;6.00;99.90
37340;DHT22;23223;51.006;7.610;2023-12-20T15:27:03;6.00;99.90
37340;DHT22;23223;51.006;7.610;2023-12-20T15:29:29;6.00;99.90
37340;DHT22;23223;51.006;7.610;2023-12-20T15:31:56;6.00;99.90
37340;DHT22;23223;51.006;7.610;2023-12-20T15:34:21;6.00;99.90
37340;DHT22;23223;51.006;7.610;2023-12-20T15:36:47;6.10;99.90
37340;DHT22;23223;51.006;7.610;2023-12-20T15:39:13;6.10;99.90
37340;DHT22;23223;51.006;7.610;2023-12-20T15:41:39;6.00;99.90
37340;DHT22;23223;51.006;7.610;2023-12-20T15:44:05;6.00;99.90